Terminal Aerodrome Forecast
Issued by NWS Pittsburgh, PA

Current Version | Previous Version | Graphics & Text | Print | Product List | Glossary On
Versions: 1 2 3 4 5 6 7 8 9 10 11 12 13 14 15 16 17 18 19 20 21 22 23 24 25 26 27
000
FTUS41 KPBZ 082300
TAFPIT
TAF
KPIT 082326Z 0900/1006 24010KT P6SM SCT050
     FM090900 23005KT P6SM SCT008 BKN015
     FM091500 25010KT P6SM BKN035
     FM100000 31005KT P6SM SCT250=

USA.gov is the U.S. government's official web portal to all federal, state and local government web resources and services.